createdAt,value
2018-01-08T00:01:37.896Z,1.77
2018-01-08T00:04:05.511Z,1.43
2018-01-08T00:06:33.024Z,2.63
2018-01-08T00:09:00.584Z,1.63
2018-01-08T00:11:28.159Z,2.20
2018-01-08T00:13:55.688Z,1.57
2018-01-08T00:16:23.266Z,1.70
2018-01-08T00:18:50.822Z,1.93
2018-01-08T00:21:18.388Z,2.20
2018-01-08T00:23:45.933Z,1.57
2018-01-08T00:26:13.734Z,1.27
2018-01-08T00:28:41.300Z,2.50
2018-01-08T00:31:08.902Z,2.00
2018-01-08T00:33:36.453Z,1.20
2018-01-08T00:36:04.098Z,1.83
2018-01-08T00:38:31.674Z,1.23
2018-01-08T00:40:59.230Z,2.10
2018-01-08T00:43:26.834Z,1.40
2018-01-08T00:45:54.390Z,2.47
2018-01-08T00:48:21.920Z,3.23
2018-01-08T00:50:49.512Z,2.23
2018-01-08T00:53:17.062Z,1.57
2018-01-08T00:55:44.609Z,1.80
2018-01-08T00:58:12.180Z,3.10
2018-01-08T01:00:39.816Z,1.80
2018-01-08T01:03:07.420Z,3.07
2018-01-08T01:05:35.027Z,1.70
2018-01-08T01:08:02.577Z,2.43
2018-01-08T01:10:30.161Z,2.40
2018-01-08T01:12:57.710Z,2.93
2018-01-08T01:15:25.286Z,2.23
2018-01-08T01:17:52.858Z,1.70
2018-01-08T01:20:20.538Z,1.80
2018-01-08T01:22:48.145Z,1.30
2018-01-08T01:25:15.696Z,2.80
2018-01-08T01:27:43.216Z,2.60
2018-01-08T01:30:10.804Z,2.20
2018-01-08T01:32:38.326Z,2.60
2018-01-08T01:35:05.868Z,3.03
2018-01-08T01:37:33.475Z,2.60
2018-01-08T01:40:01.016Z,3.23
2018-01-08T01:42:28.527Z,2.10
2018-01-08T01:44:56.095Z,2.60
2018-01-08T01:47:23.613Z,2.30
2018-01-08T01:49:51.144Z,2.50
2018-01-08T01:52:18.711Z,4.23
2018-01-08T01:54:46.322Z,2.90
2018-01-08T01:57:13.872Z,2.57
2018-01-08T01:59:41.437Z,4.27
2018-01-08T02:02:09.023Z,4.37
2018-01-08T02:04:36.542Z,3.50
2018-01-08T02:07:04.100Z,4.27
2018-01-08T02:09:31.658Z,3.07
2018-01-08T02:11:59.196Z,3.97
2018-01-08T02:14:26.939Z,5.67
2018-01-08T02:16:54.538Z,4.10
2018-01-08T02:19:22.084Z,3.63
2018-01-08T02:21:49.644Z,3.50
2018-01-08T02:24:17.181Z,2.83
2018-01-08T02:26:44.799Z,6.23
2018-01-08T02:29:12.365Z,3.77
2018-01-08T02:31:39.928Z,4.40
2018-01-08T02:34:07.463Z,2.50
2018-01-08T02:36:35.044Z,6.13
2018-01-08T02:39:02.604Z,5.30
2018-01-08T02:41:30.143Z,4.10
2018-01-08T02:43:57.819Z,4.80
2018-01-08T02:46:25.378Z,6.03
2018-01-08T02:48:52.919Z,6.30
2018-01-08T02:51:20.440Z,7.57
2018-01-08T02:53:48.017Z,5.70
2018-01-08T02:56:15.583Z,4.03
2018-01-08T02:58:43.165Z,4.70
2018-01-08T03:01:10.712Z,6.67
2018-01-08T03:03:38.245Z,6.60
2018-01-08T03:06:05.808Z,6.03
2018-01-08T03:08:33.417Z,4.10
2018-01-08T03:11:00.927Z,6.87
2018-01-08T03:13:28.435Z,6.77
2018-01-08T03:15:56.037Z,4.70
2018-01-08T03:18:23.554Z,6.27
2018-01-08T03:20:51.083Z,6.03
2018-01-08T03:23:18.789Z,7.63
2018-01-08T03:25:46.332Z,7.63
2018-01-08T03:28:13.842Z,6.97
2018-01-08T03:30:41.458Z,6.67
2018-01-08T03:33:09.018Z,7.50
2018-01-08T03:35:36.665Z,5.93
2018-01-08T03:38:04.277Z,7.07
2018-01-08T03:40:31.894Z,6.97
2018-01-08T03:42:59.450Z,5.20
2018-01-08T03:45:27.031Z,6.13
2018-01-08T03:47:54.577Z,7.53
2018-01-08T03:50:22.116Z,7.63
2018-01-08T03:52:49.759Z,7.07
2018-01-08T03:55:17.369Z,5.00
2018-01-08T03:57:44.972Z,8.63
2018-01-08T04:00:12.533Z,5.13
2018-01-08T04:02:40.131Z,6.00
2018-01-08T04:05:07.643Z,7.30
2018-01-08T04:07:35.513Z,8.47
2018-01-08T04:10:03.065Z,7.60
2018-01-08T04:12:30.614Z,7.87
2018-01-08T04:14:58.224Z,5.47
2018-01-08T04:17:25.817Z,6.60
2018-01-08T04:19:53.360Z,5.93
2018-01-08T04:22:20.914Z,6.47
2018-01-08T04:24:48.436Z,8.07
2018-01-08T04:27:15.978Z,8.10
2018-01-08T04:29:43.595Z,4.97
2018-01-08T04:32:11.158Z,5.00
2018-01-08T04:34:38.667Z,5.90
2018-01-08T04:37:06.238Z,5.97
2018-01-08T04:39:33.762Z,8.23
2018-01-08T04:42:01.353Z,6.30
2018-01-08T04:44:28.877Z,4.17
2018-01-08T04:46:56.387Z,8.40
2018-01-08T04:49:23.953Z,3.70
2018-01-08T04:51:51.606Z,7.50
2018-01-08T04:54:19.218Z,5.70
2018-01-08T04:56:46.764Z,6.60
2018-01-08T04:59:14.282Z,7.30
2018-01-08T05:01:41.872Z,5.50
2018-01-08T05:04:09.429Z,7.30
2018-01-08T05:06:36.976Z,6.30
2018-01-08T05:09:04.568Z,8.20
2018-01-08T05:11:32.108Z,8.10
2018-01-08T05:13:59.685Z,5.93
2018-01-08T05:16:27.285Z,7.10
2018-01-08T05:18:54.832Z,6.50
2018-01-08T05:21:22.399Z,6.37
2018-01-08T05:23:49.921Z,5.23
2018-01-08T05:26:17.575Z,5.53
2018-01-08T05:28:45.180Z,7.13
2018-01-08T05:31:12.724Z,7.90
2018-01-08T05:33:40.328Z,6.27
2018-01-08T05:36:07.888Z,7.40
2018-01-08T05:38:35.448Z,6.27
2018-01-08T05:41:03.016Z,7.33
2018-01-08T05:43:30.575Z,7.23
2018-01-08T05:45:58.148Z,7.27
2018-01-08T05:48:25.663Z,5.50
2018-01-08T05:50:53.216Z,7.13
2018-01-08T05:53:20.754Z,6.77
2018-01-08T05:55:48.293Z,5.40
2018-01-08T05:58:15.844Z,4.87
2018-01-08T06:00:43.550Z,7.47
2018-01-08T06:03:11.156Z,7.50
2018-01-08T06:05:39.017Z,5.40
2018-01-08T06:08:06.588Z,5.70
2018-01-08T06:10:34.141Z,8.40
2018-01-08T06:13:01.746Z,5.60
2018-01-08T06:15:29.269Z,8.07
2018-01-08T06:17:56.906Z,6.67
2018-01-08T06:20:24.539Z,8.73
2018-01-08T06:22:52.088Z,8.17
2018-01-08T06:25:19.774Z,9.87
2018-01-08T06:27:47.288Z,7.17
2018-01-08T06:30:14.809Z,7.00
2018-01-08T06:32:42.408Z,6.90
2018-01-08T06:35:09.923Z,10.70
2018-01-08T06:37:37.617Z,7.47
2018-01-08T06:40:05.215Z,9.70
2018-01-08T06:42:32.794Z,9.67
2018-01-08T06:45:00.367Z,10.93
2018-01-08T06:47:27.931Z,9.70
2018-01-08T06:49:55.446Z,9.30
2018-01-08T06:52:23.035Z,10.93
2018-01-08T06:54:50.546Z,5.53
2018-01-08T06:57:18.130Z,10.23
2018-01-08T06:59:45.680Z,8.57
2018-01-08T07:02:13.289Z,8.70
2018-01-08T07:04:40.846Z,8.93
2018-01-08T07:07:08.400Z,7.00
2018-01-08T07:09:35.944Z,9.40
2018-01-08T07:12:03.497Z,8.37
2018-01-08T07:14:31.142Z,6.80
2018-01-08T07:16:58.668Z,8.20
2018-01-08T07:19:26.329Z,5.87
2018-01-08T07:21:53.894Z,13.40
2018-01-08T07:24:21.507Z,8.73
2018-01-08T07:26:49.085Z,10.50
2018-01-08T07:29:16.666Z,9.50
2018-01-08T07:31:44.216Z,9.70
2018-01-08T07:34:11.813Z,5.70
2018-01-08T07:36:39.337Z,8.63
2018-01-08T07:39:07.084Z,13.60
2018-01-08T07:41:34.631Z,8.80
2018-01-08T07:44:02.227Z,10.53
2018-01-08T07:46:29.747Z,11.13
2018-01-08T07:48:57.471Z,7.40
2018-01-08T07:51:25.025Z,9.37
2018-01-08T07:53:52.594Z,9.40
2018-01-08T07:56:20.296Z,11.03
2018-01-08T07:58:47.950Z,12.00
2018-01-08T08:01:15.488Z,9.50
2018-01-08T08:03:43.069Z,13.97
2018-01-08T08:06:10.611Z,9.50
2018-01-08T08:08:38.356Z,7.77
2018-01-08T08:11:05.880Z,7.77
2018-01-08T08:13:33.414Z,11.00
2018-01-08T08:16:00.952Z,8.07
2018-01-08T08:18:28.468Z,6.63
2018-01-08T08:20:56.039Z,6.40
2018-01-08T08:23:23.593Z,5.27
2018-01-08T08:25:51.172Z,5.50
2018-01-08T08:28:18.684Z,15.00
2018-01-08T08:30:46.270Z,7.77
2018-01-08T08:33:13.817Z,6.57
2018-01-08T08:35:41.404Z,10.90
2018-01-08T08:38:08.926Z,12.27
2018-01-08T08:40:36.460Z,7.60
2018-01-08T08:43:04.154Z,10.67
2018-01-08T08:45:31.714Z,10.60
2018-01-08T08:47:59.222Z,13.77
2018-01-08T08:50:26.814Z,11.80
2018-01-08T08:52:54.362Z,8.90
2018-01-08T08:55:21.968Z,11.90
2018-01-08T08:57:49.491Z,7.90
2018-01-08T09:00:17.022Z,13.17
2018-01-08T09:02:44.621Z,9.67
2018-01-08T09:05:12.177Z,10.97
2018-01-08T09:07:39.699Z,14.30
2018-01-08T09:10:07.277Z,9.87
2018-01-08T09:12:34.877Z,7.43
2018-01-08T09:15:02.400Z,11.50
2018-01-08T09:17:29.941Z,8.60
2018-01-08T09:19:57.562Z,9.30
2018-01-08T09:22:25.125Z,11.57
2018-01-08T09:24:52.672Z,8.87
2018-01-08T09:27:20.244Z,9.93
2018-01-08T09:29:47.855Z,6.93
2018-01-08T09:32:15.394Z,7.30
2018-01-08T09:34:42.939Z,11.80
2018-01-08T09:37:10.563Z,8.10
2018-01-08T09:39:38.120Z,9.87
2018-01-08T09:42:05.644Z,8.60
2018-01-08T09:44:33.241Z,6.60
2018-01-08T09:47:00.757Z,8.20
2018-01-08T09:49:28.306Z,8.27
2018-01-08T09:51:55.912Z,10.03
2018-01-08T09:54:22.714Z,7.87
2018-01-08T09:56:50.224Z,8.00
2018-01-08T09:59:17.767Z,9.40
2018-01-08T10:01:45.336Z,7.27
2018-01-08T10:04:24.830Z,7.67
2018-01-08T10:07:04.461Z,9.03
2018-01-08T10:09:43.784Z,5.90
2018-01-08T10:12:23.240Z,7.83
2018-01-08T10:15:02.848Z,8.00
2018-01-08T10:17:42.216Z,6.07
2018-01-08T10:20:09.796Z,8.47
2018-01-08T10:22:37.336Z,7.73
2018-01-08T10:25:04.853Z,8.73
2018-01-08T10:27:32.442Z,6.67
2018-01-08T10:30:00.030Z,6.23
2018-01-08T10:32:27.633Z,6.60
2018-01-08T10:34:55.309Z,6.73
2018-01-08T10:37:22.906Z,7.00
2018-01-08T10:39:50.420Z,8.00
2018-01-08T10:42:23.652Z,5.40
2018-01-08T10:44:57.040Z,6.00
2018-01-08T10:47:30.296Z,9.40
2018-01-08T10:50:03.479Z,6.30
2018-01-08T10:52:31.073Z,8.13
2018-01-08T10:55:07.339Z,6.33
2018-01-08T10:57:34.864Z,7.30
2018-01-08T11:00:02.416Z,7.93
2018-01-08T11:02:35.661Z,3.27
2018-01-08T11:05:03.196Z,4.73
2018-01-08T11:07:30.791Z,6.40
2018-01-08T11:09:58.342Z,6.70
2018-01-08T11:12:25.902Z,5.40
2018-01-08T11:14:53.448Z,7.60
2018-01-08T11:17:21.022Z,5.33
2018-01-08T11:19:48.590Z,7.40
2018-01-08T11:22:16.118Z,7.17
2018-01-08T11:24:43.689Z,5.77
2018-01-08T11:27:11.255Z,6.80
2018-01-08T11:29:38.779Z,4.70
2018-01-08T11:32:06.455Z,6.60
2018-01-08T11:34:34.123Z,5.50
2018-01-08T11:37:01.690Z,6.23
2018-01-08T11:39:29.236Z,4.27
2018-01-08T11:41:56.865Z,5.20
2018-01-08T11:44:24.412Z,8.63
2018-01-08T11:46:51.976Z,4.60
2018-01-08T11:49:19.594Z,5.80
2018-01-08T11:51:47.133Z,7.00
2018-01-08T11:54:14.692Z,7.13
2018-01-08T11:56:42.243Z,7.77
2018-01-08T11:59:09.845Z,6.17
2018-01-08T12:01:37.514Z,6.07
2018-01-08T12:04:05.055Z,5.20
2018-01-08T12:06:32.786Z,5.40
2018-01-08T12:09:00.379Z,6.67
2018-01-08T12:11:27.944Z,8.40
2018-01-08T12:13:55.518Z,6.50
2018-01-08T12:16:23.057Z,4.73
2018-01-08T12:18:50.579Z,6.43
2018-01-08T12:21:18.128Z,7.90
2018-01-08T12:23:45.736Z,7.70
2018-01-08T12:26:13.272Z,8.30
2018-01-08T12:28:40.791Z,5.53
2018-01-08T12:31:08.385Z,6.13
2018-01-08T12:33:35.952Z,7.17
2018-01-08T12:36:03.519Z,5.77
2018-01-08T12:38:31.069Z,9.80
2018-01-08T12:40:58.591Z,7.63
2018-01-08T12:43:26.148Z,5.47
2018-01-08T12:45:53.734Z,10.77
2018-01-08T12:48:21.272Z,8.60
2018-01-08T12:50:48.873Z,10.53
2018-01-08T12:53:16.534Z,10.00
2018-01-08T12:55:44.136Z,9.83
2018-01-08T12:58:11.652Z,10.27
2018-01-08T13:00:39.232Z,8.90
2018-01-08T13:03:06.800Z,6.60
2018-01-08T13:05:34.355Z,8.37
2018-01-08T13:08:01.944Z,7.70
2018-01-08T13:10:29.475Z,6.23
2018-01-08T13:12:57.072Z,8.50
2018-01-08T13:15:24.641Z,6.93
2018-01-08T13:17:52.167Z,6.40
2018-01-08T13:20:19.985Z,7.67
2018-01-08T13:22:47.554Z,10.03
2018-01-08T13:25:15.157Z,7.27
2018-01-08T13:27:42.717Z,6.87
2018-01-08T13:30:10.476Z,7.27
2018-01-08T13:32:38.040Z,7.00
2018-01-08T13:35:05.635Z,5.80
2018-01-08T13:37:33.358Z,7.73
2018-01-08T13:40:00.936Z,7.30
2018-01-08T13:42:28.756Z,6.80
2018-01-08T13:44:56.432Z,9.07
2018-01-08T13:47:24.212Z,4.83
2018-01-08T13:49:51.774Z,6.10
2018-01-08T13:52:19.357Z,7.13
2018-01-08T13:54:47.095Z,5.13
2018-01-08T13:57:14.798Z,8.17
2018-01-08T13:59:42.484Z,9.30
2018-01-08T14:02:10.069Z,8.00
2018-01-08T14:04:37.625Z,7.53
2018-01-08T14:07:08.072Z,6.83
2018-01-08T14:09:35.792Z,7.70
2018-01-08T14:12:03.516Z,8.10
2018-01-08T14:14:31.033Z,5.87
2018-01-08T14:16:58.637Z,9.30
2018-01-08T14:19:26.551Z,8.33
2018-01-08T14:21:54.100Z,9.17
2018-01-08T14:24:21.635Z,9.10
2018-01-08T14:26:49.172Z,9.40
2018-01-08T14:29:16.732Z,6.77
2018-01-08T14:31:44.333Z,6.60
2018-01-08T14:34:11.860Z,9.53
2018-01-08T14:36:39.553Z,8.03
2018-01-08T14:39:07.104Z,9.20
2018-01-08T14:41:34.637Z,5.53
2018-01-08T14:44:03.261Z,4.87
2018-01-08T14:46:30.871Z,7.90
2018-01-08T14:48:58.504Z,7.00
2018-01-08T14:51:26.044Z,8.03
2018-01-08T14:53:53.602Z,5.73
2018-01-08T14:56:21.176Z,6.33
2018-01-08T14:58:48.755Z,7.30
2018-01-08T15:01:16.316Z,9.10
2018-01-08T15:03:44.090Z,7.90
2018-01-08T15:06:11.818Z,7.13
2018-01-08T15:08:39.405Z,6.67
2018-01-08T15:11:06.986Z,6.60
2018-01-08T15:13:34.569Z,7.50
2018-01-08T15:16:02.253Z,6.80
2018-01-08T15:18:29.833Z,6.07
2018-01-08T15:20:57.407Z,9.83
2018-01-08T15:23:24.952Z,5.77
2018-01-08T15:25:52.488Z,7.07
2018-01-08T15:28:20.024Z,7.93
2018-01-08T15:30:47.580Z,6.93
2018-01-08T15:33:15.180Z,5.93
2018-01-08T15:35:42.740Z,5.97
2018-01-08T15:38:10.282Z,7.57
2018-01-08T15:40:37.897Z,4.60
2018-01-08T15:43:05.441Z,2.83
2018-01-08T15:45:32.983Z,6.87
2018-01-08T15:48:00.568Z,9.33
2018-01-08T15:50:28.079Z,7.37
2018-01-08T15:52:55.593Z,5.67
2018-01-08T15:55:23.156Z,5.87
2018-01-08T15:57:50.792Z,4.93
2018-01-08T16:00:18.423Z,5.33
2018-01-08T16:02:46.045Z,7.40
2018-01-08T16:05:13.580Z,7.03
2018-01-08T16:07:41.186Z,6.80
2018-01-08T16:10:08.741Z,7.20
2018-01-08T16:12:36.282Z,5.53
2018-01-08T16:15:03.848Z,6.47
2018-01-08T16:17:31.429Z,6.13
2018-01-08T16:19:58.934Z,5.10
2018-01-08T16:22:26.510Z,4.70
2018-01-08T16:24:54.020Z,4.70
2018-01-08T16:27:21.562Z,6.50
2018-01-08T16:29:49.076Z,5.33
2018-01-08T16:32:16.652Z,3.77
2018-01-08T16:34:44.201Z,4.10
2018-01-08T16:37:11.722Z,7.23
2018-01-08T16:39:39.426Z,4.90
2018-01-08T16:42:07.006Z,5.47
2018-01-08T16:44:34.548Z,4.50
2018-01-08T16:47:02.117Z,2.83
2018-01-08T16:49:29.674Z,5.13
2018-01-08T16:51:57.189Z,4.80
2018-01-08T16:54:24.734Z,3.50
2018-01-08T16:56:52.316Z,3.67
2018-01-08T16:59:19.823Z,5.40
2018-01-08T17:01:47.384Z,5.00
2018-01-08T17:04:15.925Z,4.73
2018-01-08T17:06:43.540Z,3.63
2018-01-08T17:09:11.046Z,2.90
2018-01-08T17:11:38.560Z,3.67
2018-01-08T17:14:06.139Z,4.37
2018-01-08T17:16:33.687Z,6.83
2018-01-08T17:19:01.241Z,5.47
2018-01-08T17:21:28.884Z,5.57
2018-01-08T17:23:56.697Z,3.73
2018-01-08T17:26:24.256Z,4.07
2018-01-08T17:28:51.809Z,4.03
2018-01-08T17:31:19.394Z,4.20
2018-01-08T17:33:47.032Z,4.13
2018-01-08T17:36:14.745Z,5.40
2018-01-08T17:38:42.278Z,4.80
2018-01-08T17:41:09.838Z,5.40
2018-01-08T17:43:37.442Z,5.80
2018-01-08T17:46:05.027Z,3.90
2018-01-08T17:48:32.604Z,4.97
2018-01-08T17:51:00.280Z,6.40
2018-01-08T17:53:28.003Z,4.23
2018-01-08T17:55:55.599Z,10.30
2018-01-08T17:58:23.310Z,6.97
2018-01-08T18:00:50.823Z,4.67
2018-01-08T18:03:18.457Z,6.07
2018-01-08T18:05:45.976Z,4.33
2018-01-08T18:08:13.705Z,3.47
2018-01-08T18:10:41.358Z,4.60
2018-01-08T18:13:08.941Z,4.70
2018-01-08T18:15:36.623Z,4.73
2018-01-08T18:18:04.300Z,5.07
2018-01-08T18:20:31.865Z,4.57
2018-01-08T18:22:59.408Z,3.53
2018-01-08T18:25:27.020Z,5.87
2018-01-08T18:27:54.608Z,3.10
2018-01-08T18:30:22.186Z,2.80
2018-01-08T18:32:49.728Z,3.60
2018-01-08T18:35:17.320Z,4.03
2018-01-08T18:37:44.867Z,3.40
2018-01-08T18:40:12.390Z,6.17
2018-01-08T18:42:39.953Z,5.10
2018-01-08T18:45:07.476Z,5.70
2018-01-08T18:47:35.020Z,5.20
2018-01-08T18:50:02.569Z,3.70
2018-01-08T18:52:30.205Z,4.80
2018-01-08T18:54:57.727Z,5.50
2018-01-08T18:57:25.472Z,5.80
2018-01-08T18:59:53.043Z,4.33
2018-01-08T19:02:20.580Z,5.57
2018-01-08T19:04:48.144Z,4.47
2018-01-08T19:07:15.717Z,6.10
2018-01-08T19:09:43.290Z,5.97
2018-01-08T19:12:10.840Z,3.70
2018-01-08T19:14:38.540Z,4.20
2018-01-08T19:17:06.116Z,3.93
2018-01-08T19:19:33.834Z,5.13
2018-01-08T19:22:01.457Z,4.70
2018-01-08T19:24:29.021Z,5.77
2018-01-08T19:26:56.547Z,5.70
2018-01-08T19:29:24.223Z,4.63
2018-01-08T19:31:51.772Z,6.83
2018-01-08T19:34:19.323Z,4.43
2018-01-08T19:36:46.885Z,5.43
2018-01-08T19:39:14.578Z,5.17
2018-01-08T19:41:42.137Z,5.50
2018-01-08T19:44:09.722Z,6.10
2018-01-08T19:46:37.341Z,6.63
2018-01-08T19:49:04.880Z,6.10
2018-01-08T19:51:32.591Z,6.27
2018-01-08T19:54:00.142Z,7.77
2018-01-08T19:56:27.722Z,4.20
2018-01-08T19:58:55.270Z,5.43
2018-01-08T20:01:22.824Z,6.03
2018-01-08T20:03:50.667Z,6.20
2018-01-08T20:06:18.220Z,7.03
2018-01-08T20:08:45.807Z,6.07
2018-01-08T20:11:13.386Z,5.17
2018-01-08T20:13:41.053Z,5.30
2018-01-08T20:16:08.670Z,5.60
2018-01-08T20:18:36.311Z,5.27
2018-01-08T20:21:03.889Z,5.80
2018-01-08T20:23:31.523Z,6.10
2018-01-08T20:25:59.124Z,4.33
2018-01-08T20:28:26.644Z,6.10
2018-01-08T20:30:54.242Z,3.90
2018-01-08T20:33:21.801Z,4.47
2018-01-08T20:35:49.391Z,4.80
2018-01-08T20:38:16.942Z,6.17
2018-01-08T20:40:44.488Z,4.23
2018-01-08T20:43:12.059Z,5.37
2018-01-08T20:45:39.623Z,7.97
2018-01-08T20:48:07.135Z,4.50
2018-01-08T20:50:34.700Z,3.97
2018-01-08T20:53:02.214Z,6.17
2018-01-08T20:55:29.765Z,6.67
2018-01-08T20:57:57.342Z,6.67
2018-01-08T21:00:24.944Z,5.50
2018-01-08T21:02:52.497Z,7.40
2018-01-08T21:05:20.092Z,5.23
2018-01-08T21:07:47.633Z,4.43
2018-01-08T21:10:15.176Z,7.30
2018-01-08T21:12:42.798Z,6.07
2018-01-08T21:15:10.413Z,6.70
2018-01-08T21:17:37.924Z,6.27
2018-01-08T21:20:05.542Z,4.70
2018-01-08T21:22:33.190Z,6.77
2018-01-08T21:25:00.745Z,4.00
2018-01-08T21:27:28.312Z,7.33
2018-01-08T21:29:55.865Z,7.10
2018-01-08T21:32:23.408Z,4.63
2018-01-08T21:34:50.941Z,5.20
2018-01-08T21:37:18.542Z,5.73
2018-01-08T21:39:46.161Z,5.70
2018-01-08T21:42:13.701Z,7.07
2018-01-08T21:44:41.302Z,4.50
2018-01-08T21:47:08.888Z,5.10
2018-01-08T21:49:36.452Z,4.97
2018-01-08T21:52:03.978Z,7.00
2018-01-08T21:54:31.522Z,6.10
2018-01-08T21:56:59.060Z,6.80
2018-01-08T21:59:26.624Z,6.70
2018-01-08T22:01:54.231Z,7.73
2018-01-08T22:04:22.630Z,7.43
2018-01-08T22:06:50.165Z,5.03
2018-01-08T22:09:17.731Z,7.90
2018-01-08T22:11:45.235Z,7.90
2018-01-08T22:14:12.765Z,7.00
2018-01-08T22:16:40.398Z,7.60
2018-01-08T22:19:08.095Z,6.23
2018-01-08T22:21:35.609Z,4.60
2018-01-08T22:24:03.200Z,6.00
2018-01-08T22:26:30.753Z,4.87
2018-01-08T22:28:58.260Z,5.07
2018-01-08T22:31:25.786Z,5.70
2018-01-08T22:33:53.329Z,6.00
2018-01-08T22:36:20.973Z,5.40
2018-01-08T22:38:48.509Z,4.07
2018-01-08T22:41:16.121Z,6.73
2018-01-08T22:43:43.640Z,5.30
2018-01-08T22:46:11.174Z,4.07
2018-01-08T22:48:38.738Z,6.90
2018-01-08T22:51:06.304Z,5.47
2018-01-08T22:53:33.922Z,4.87
2018-01-08T22:56:01.536Z,6.43
2018-01-08T22:58:29.121Z,4.80
2018-01-08T23:00:56.677Z,4.97
2018-01-08T23:03:24.215Z,6.93
2018-01-08T23:05:51.744Z,4.60
2018-01-08T23:08:19.308Z,4.67
2018-01-08T23:10:46.847Z,5.27
2018-01-08T23:13:14.499Z,4.73
2018-01-08T23:15:42.011Z,6.70
2018-01-08T23:18:09.565Z,7.13
2018-01-08T23:20:37.128Z,3.50
2018-01-08T23:23:04.735Z,4.57
2018-01-08T23:25:32.271Z,5.50
2018-01-08T23:27:59.785Z,7.50
2018-01-08T23:30:27.320Z,6.77
2018-01-08T23:32:54.979Z,6.50
2018-01-08T23:35:22.532Z,7.97
2018-01-08T23:37:50.236Z,6.80
2018-01-08T23:40:17.824Z,7.03
2018-01-08T23:42:45.408Z,5.70
2018-01-08T23:45:12.955Z,7.50
2018-01-08T23:47:40.552Z,7.27
2018-01-08T23:50:08.108Z,5.80
2018-01-08T23:52:35.624Z,5.87
2018-01-08T23:55:03.151Z,6.53
2018-01-08T23:57:30.749Z,5.70
2018-01-08T23:59:58.265Z,7.20
